Time;durP1;ratioP1;P1;durP2;ratioP2;P2;SDS_P1;SDS_P2;PMS_P1;PMS_P2;Temp;Humidity;BMP_temperature;BMP_pressure;BME280_temperature;BME280_humidity;BME280_pressure;Samples;Min_cycle;Max_cycle;Signal;HPM_P1;HPM_P2
2022/01/13 00:00:06;;;;;;;5.53;3.27;;;;;;;1.40;94.86;100640.81;1768557;81;21517;-81
2022/01/13 00:02:36;;;;;;;3.87;2.80;;;;;;;1.42;94.86;100631.37;1760695;81;21786;-81
2022/01/13 00:05:04;;;;;;;5.17;3.20;;;;;;;1.42;94.88;100639.09;1757904;81;21646;-81
2022/01/13 00:07:31;;;;;;;6.17;3.05;;;;;;;1.44;95.01;100651.55;1766187;81;20922;-81
2022/01/13 00:09:58;;;;;;;4.07;3.23;;;;;;;1.47;95.07;100657.99;1763744;81;20895;-81
2022/01/13 00:12:29;;;;;;;8.17;3.47;;;;;;;1.50;95.10;100655.86;1762629;81;21060;-81
2022/01/13 00:15:20;;;;;;;3.80;2.60;;;;;;;1.50;95.09;100660.58;1762051;81;20918;-81
2022/01/13 00:20:31;;;;;;;4.97;3.10;;;;;;;1.52;95.10;100649.88;1757827;81;20926;-81
2022/01/13 00:23:39;;;;;;;5.20;3.00;;;;;;;1.54;95.15;100657.18;1756146;80;20937;-81
2022/01/13 00:25:21;;;;;;;5.65;3.17;;;;;;;1.55;95.12;100665.33;1758570;81;21082;-81
2022/01/13 00:27:54;;;;;;;5.45;2.70;;;;;;;1.54;95.13;100662.33;1769909;81;21470;-81
2022/01/13 00:30:18;;;;;;;5.28;3.12;;;;;;;1.55;95.20;100666.61;1766207;81;20910;-81
2022/01/13 00:32:45;;;;;;;4.28;3.25;;;;;;;1.56;95.29;100655.45;1763904;81;20902;-81
2022/01/13 00:35:12;;;;;;;4.90;3.00;;;;;;;1.59;95.35;100658.47;1761132;79;20902;-82
2022/01/13 00:37:40;;;;;;;6.13;2.97;;;;;;;1.61;95.40;100657.20;1773956;80;21050;-81
2022/01/13 00:40:09;;;;;;;3.90;2.87;;;;;;;1.63;95.51;100634.91;1752857;81;20953;-82
2022/01/13 00:42:35;;;;;;;1.90;1.70;;;;;;;1.64;95.46;100632.75;1750386;81;20947;-82
2022/01/13 00:45:04;;;;;;;3.35;2.12;;;;;;;1.63;95.45;100637.05;1752533;81;21061;-82
2022/01/13 00:47:31;;;;;;;3.02;1.87;;;;;;;1.64;95.47;100623.74;1761067;81;20938;-82
2022/01/13 00:49:58;;;;;;;3.22;2.20;;;;;;;1.62;95.50;100612.57;1788109;80;20983;-82
2022/01/13 00:52:25;;;;;;;3.90;2.47;;;;;;;1.61;95.50;100607.00;1784520;79;21418;-82
2022/01/13 00:54:53;;;;;;;2.58;2.08;;;;;;;1.61;95.51;100588.98;1783249;79;20922;-82
2022/01/13 00:57:20;;;;;;;2.02;1.60;;;;;;;1.63;95.77;100586.00;1780523;80;26257;-81
2022/01/13 00:59:46;;;;;;;3.02;1.90;;;;;;;1.63;95.98;100581.70;1759298;81;20982;-81
2022/01/13 01:02:13;;;;;;;2.15;1.80;;;;;;;1.63;95.95;100586.00;1760319;81;21042;-81
2022/01/13 01:04:40;;;;;;;2.10;1.62;;;;;;;1.64;96.15;100569.69;1748465;81;21983;-82
2022/01/13 01:07:06;;;;;;;2.20;1.67;;;;;;;1.64;96.08;100549.09;1751768;81;20902;-81
2022/01/13 01:09:48;;;;;;;1.77;1.50;;;;;;;1.63;96.05;100573.13;1762074;81;20930;-81
2022/01/13 01:12:02;;;;;;;3.30;1.98;;;;;;;1.65;96.09;100589.41;1751357;81;21766;-82
2022/01/13 01:14:32;;;;;;;2.00;1.82;;;;;;;1.65;96.00;100591.98;1753852;81;21051;-81
2022/01/13 01:16:57;;;;;;;2.98;1.80;;;;;;;1.66;95.98;100591.16;1751338;81;20978;-82
2022/01/13 01:19:28;;;;;;;1.80;1.40;;;;;;;1.66;96.00;100589.86;1748771;81;20883;-81
2022/01/13 01:26:52;;;;;;;1.62;1.42;;;;;;;1.66;96.06;100563.69;1742746;79;22669;-81
2022/01/13 01:29:36;;;;;;;1.62;1.37;;;;;;;1.67;96.11;100570.97;1752882;79;20935;-81
2022/01/13 01:31:57;;;;;;;3.00;1.75;;;;;;;1.69;96.15;100567.98;1747872;81;20908;-81
2022/01/13 01:36:55;;;;;;;1.87;1.52;;;;;;;1.70;96.48;100549.09;1757635;81;21433;-81
2022/01/13 01:39:23;;;;;;;1.55;1.45;;;;;;;1.69;96.39;100550.81;1760347;80;25355;-81
2022/01/13 01:41:53;;;;;;;2.65;2.20;;;;;;;1.72;97.38;100535.81;1748440;80;21474;-81
2022/01/13 01:44:31;;;;;;;1.90;1.57;;;;;;;1.74;96.57;100540.54;1752702;80;20928;-81
2022/01/13 01:46:58;;;;;;;2.05;1.32;;;;;;;1.75;96.54;100544.82;1759281;81;20948;-81
2022/01/13 01:49:26;;;;;;;2.92;2.20;;;;;;;1.75;96.50;100537.09;1755529;80;20999;-81
2022/01/13 01:51:57;;;;;;;2.33;1.70;;;;;;;1.75;96.48;100538.38;1748459;80;21034;-81
2022/01/13 01:54:24;;;;;;;2.30;1.70;;;;;;;1.76;96.53;100537.52;1749688;81;20987;-81
2022/01/13 01:56:52;;;;;;;1.65;1.27;;;;;;;1.78;96.65;100537.09;1747544;81;21432;-80
2022/01/13 01:59:21;;;;;;;2.42;1.60;;;;;;;1.79;96.62;100520.78;1757353;81;20984;-80
2022/01/13 02:01:50;;;;;;;2.65;1.62;;;;;;;1.78;96.62;100537.09;1746899;80;20932;-80
2022/01/13 02:04:18;;;;;;;2.08;1.82;;;;;;;1.78;96.70;100530.23;1750584;80;21018;-80
2022/01/13 02:06:46;;;;;;;1.85;1.52;;;;;;;1.79;96.66;100519.49;1755897;81;20983;-80
2022/01/13 02:09:19;;;;;;;2.75;1.50;;;;;;;1.79;96.69;100515.63;1752809;80;20949;-80
2022/01/13 02:11:54;;;;;;;1.90;1.57;;;;;;;1.81;96.79;100508.78;1757574;80;20904;-80
2022/01/13 02:17:12;;;;;;;2.62;1.40;;;;;;;1.84;96.89;100484.31;1743792;81;20936;-80
2022/01/13 02:19:42;;;;;;;4.12;1.60;;;;;;;1.86;96.97;100489.05;1752925;81;21455;-80
2022/01/13 02:22:09;;;;;;;2.10;1.50;;;;;;;1.89;96.95;100472.73;1761616;80;20871;-80
2022/01/13 02:24:36;;;;;;;1.70;1.30;;;;;;;1.91;97.03;100451.28;1753839;80;20908;-80
2022/01/13 02:27:04;;;;;;;3.25;1.40;;;;;;;1.92;97.04;100450.41;1776592;79;20927;-81
2022/01/13 02:29:31;;;;;;;2.65;1.45;;;;;;;1.94;97.18;100442.70;1779163;80;21084;-81
2022/01/13 02:31:58;;;;;;;2.12;1.45;;;;;;;1.95;97.12;100447.83;1772236;80;21490;-81
2022/01/13 02:34:25;;;;;;;2.10;1.37;;;;;;;1.95;97.18;100450.41;1780140;79;20891;-80
2022/01/13 02:36:55;;;;;;;1.40;1.30;;;;;;;1.96;97.27;100431.53;1779178;80;20931;-80
2022/01/13 02:39:24;;;;;;;2.52;1.40;;;;;;;1.98;97.31;100442.67;1774956;80;20955;-80
2022/01/13 02:41:50;;;;;;;2.00;1.47;;;;;;;2.00;97.32;100440.11;1779338;79;21048;-80
2022/01/13 02:44:21;;;;;;;1.60;1.50;;;;;;;2.03;97.32;100446.98;1776006;80;20953;-80
2022/01/13 02:49:24;;;;;;;1.70;1.40;;;;;;;2.05;97.57;100424.66;1778188;80;20955;-81
2022/01/13 02:51:53;;;;;;;1.90;1.10;;;;;;;2.06;97.57;100427.66;1778455;80;20918;-80
2022/01/13 02:54:20;;;;;;;1.45;1.22;;;;;;;2.09;97.57;100423.78;1782024;80;21419;-80
2022/01/13 02:56:47;;;;;;;1.85;1.25;;;;;;;2.10;97.73;100430.64;1782241;79;20844;-80
2022/01/13 02:59:14;;;;;;;1.70;1.43;;;;;;;2.11;97.59;100422.07;1780345;80;20911;-80
2022/01/13 03:01:41;;;;;;;2.08;1.52;;;;;;;2.11;97.59;100424.64;1754059;81;20946;-80
2022/01/13 03:04:09;;;;;;;1.55;1.30;;;;;;;2.11;97.61;100417.77;1768241;81;20918;-81
2022/01/13 03:06:39;;;;;;;1.77;1.27;;;;;;;2.15;97.68;100403.16;1767091;81;21788;-81
2022/01/13 03:09:09;;;;;;;2.75;1.40;;;;;;;2.18;97.77;100400.57;1767913;79;20898;-80
2022/01/13 03:11:37;;;;;;;2.50;1.60;;;;;;;2.23;97.83;100391.12;1771022;81;20898;-81
2022/01/13 03:14:08;;;;;;;2.20;1.82;;;;;;;2.26;97.79;100406.56;1764944;81;20962;-81
2022/01/13 03:16:35;;;;;;;4.65;1.35;;;;;;;2.28;97.84;100397.12;1765133;81;20941;-81
2022/01/13 03:19:02;;;;;;;3.10;1.60;;;;;;;2.30;97.84;100382.52;1766473;81;21820;-81
2022/01/13 03:21:29;;;;;;;2.17;1.50;;;;;;;2.31;97.78;100379.07;1754524;81;20910;-81
2022/01/13 03:23:56;;;;;;;1.80;1.70;;;;;;;2.35;97.97;100385.95;1755728;81;20891;-81
2022/01/13 03:26:24;;;;;;;1.52;1.40;;;;;;;2.39;97.98;100391.50;1770922;81;20938;-81
2022/01/13 03:28:51;;;;;;;1.75;1.42;;;;;;;2.42;97.99;100387.62;1770906;81;20977;-81
2022/01/13 03:31:19;;;;;;;;;;;;;;;2.42;98.05;100392.78;1757881;81;20991;-81
2022/01/13 03:33:46;;;;;;;2.08;1.30;;;;;;;2.46;98.21;100403.52;1762976;81;20153;-81
2022/01/13 03:36:13;;;;;;;2.10;1.57;;;;;;;2.46;98.19;100400.95;1770505;81;20922;-81
2022/01/13 03:38:40;;;;;;;2.22;1.50;;;;;;;2.45;98.15;100397.92;1766529;81;20943;-81
2022/01/13 03:41:07;;;;;;;4.65;1.40;;;;;;;2.50;98.28;100394.48;1766011;81;21469;-81
2022/01/13 03:43:36;;;;;;;1.42;1.30;;;;;;;2.52;98.26;100400.47;1760823;81;21027;-81
2022/01/13 03:46:04;;;;;;;2.50;1.75;;;;;;;2.52;98.22;100393.63;1763670;81;20914;-81
2022/01/13 03:48:31;;;;;;;1.60;1.30;;;;;;;2.55;98.26;100390.14;1754528;81;20907;-81
2022/01/13 03:50:58;;;;;;;1.87;1.50;;;;;;;2.58;98.45;100405.63;1760892;81;20903;-81
2022/01/13 03:53:33;;;;;;;2.07;1.87;;;;;;;2.57;98.49;100394.88;1766717;81;20998;-81
2022/01/13 03:56:53;;;;;;;2.30;1.98;;;;;;;2.58;98.52;100396.61;1757354;81;21885;-80
2022/01/13 03:59:57;;;;;;;2.30;1.70;;;;;;;2.61;98.54;100397.88;1759764;81;20914;-81
2022/01/13 04:02:23;;;;;;;2.27;1.75;;;;;;;2.62;98.93;100391.84;1751146;81;21564;-80
2022/01/13 04:04:50;;;;;;;2.15;1.50;;;;;;;2.67;98.60;100384.95;1770180;81;20898;-80
2022/01/13 04:07:21;;;;;;;2.55;1.70;;;;;;;2.72;98.49;100393.53;1766561;81;20874;-80
2022/01/13 04:09:53;;;;;;;2.00;1.62;;;;;;;2.73;98.41;100397.81;1763212;81;21053;-80
2022/01/13 04:12:22;;;;;;;1.90;1.65;;;;;;;2.74;98.35;100386.63;1759697;81;20977;-82
2022/01/13 04:14:55;;;;;;;2.15;1.87;;;;;;;2.76;98.32;100390.06;1755820;81;21433;-83
2022/01/13 04:17:21;;;;;;;4.20;3.00;;;;;;;2.80;98.46;100380.58;1763820;81;20993;-84
2022/01/13 04:19:49;;;;;;;3.47;1.75;;;;;;;2.82;98.36;100375.84;1762740;81;20973;-84
2022/01/13 04:22:16;;;;;;;;;;;;;;;2.84;98.39;100350.91;1764326;81;21084;-84
2022/01/13 04:24:46;;;;;;;2.08;1.67;;;;;;;2.85;98.52;100361.64;1769879;81;20578;-84
2022/01/13 04:27:24;;;;;;;2.10;1.70;;;;;;;2.86;98.49;100376.27;1753138;81;20969;-83
2022/01/13 04:30:21;;;;;;;2.87;2.00;;;;;;;2.86;98.58;100369.82;1752520;81;20907;-78
2022/01/13 04:32:19;;;;;;;2.90;2.05;;;;;;;2.88;98.62;100373.66;1747224;81;20939;-82
2022/01/13 04:34:46;;;;;;;2.00;1.80;;;;;;;2.88;98.58;100368.50;1749467;81;21644;-82
2022/01/13 04:37:13;;;;;;;2.20;2.00;;;;;;;2.88;98.61;100343.56;1751329;81;20856;-82
2022/01/13 04:39:39;;;;;;;2.83;2.17;;;;;;;2.91;98.68;100353.89;1749243;81;20958;-83
2022/01/13 04:42:07;;;;;;;3.45;2.47;;;;;;;2.85;98.89;100331.98;1752378;81;21462;-86
2022/01/13 04:44:34;;;;;;;3.25;2.00;;;;;;;2.84;98.96;100334.14;1728978;81;20945;-87
2022/01/13 04:47:07;;;;;;;3.23;2.43;;;;;;;2.85;99.09;100324.24;1736644;82;21808;-84
2022/01/13 04:49:34;;;;;;;2.87;2.37;;;;;;;2.88;99.21;100330.67;1727249;82;21626;-85
2022/01/13 04:52:00;;;;;;;3.37;2.20;;;;;;;2.89;99.24;100319.50;1737583;81;20972;-82
2022/01/13 04:54:27;;;;;;;5.63;2.90;;;;;;;2.93;99.35;100325.48;1740921;81;20897;-85
2022/01/13 04:57:17;;;;;;;3.17;2.53;;;;;;;2.96;99.55;100342.67;1736362;81;20992;-82
2022/01/13 04:59:37;;;;;;;3.42;2.65;;;;;;;2.97;99.60;100346.95;1744766;81;21052;-84
2022/01/13 05:02:04;;;;;;;3.40;2.50;;;;;;;2.99;99.50;100334.91;1754459;81;20924;-83
2022/01/13 05:04:31;;;;;;;4.22;2.67;;;;;;;2.99;99.51;100338.78;1746207;81;20928;-84
2022/01/13 05:06:57;;;;;;;3.77;2.60;;;;;;;2.99;99.48;100342.65;1750639;80;20908;-84
2022/01/13 05:09:24;;;;;;;3.40;2.58;;;;;;;2.98;99.63;100343.53;1759766;81;20924;-84
2022/01/13 05:11:51;;;;;;;4.12;2.80;;;;;;;3.01;99.68;100342.22;1752414;81;21036;-84
2022/01/13 05:14:17;;;;;;;4.47;3.10;;;;;;;3.12;99.40;100353.32;1755314;81;20976;-84
2022/01/13 05:17:01;;;;;;;6.75;3.52;;;;;;;3.05;99.31;100338.33;1759815;81;20893;-77
2022/01/13 05:19:32;;;;;;;4.70;3.22;;;;;;;3.06;99.54;100328.86;1755197;80;21001;-75
2022/01/13 05:24:26;;;;;;;5.15;3.70;;;;;;;3.10;99.81;100329.24;1740763;80;21043;-67
2022/01/13 05:26:53;;;;;;;7.12;3.50;;;;;;;3.12;99.92;100332.23;1761320;79;20949;-66
2022/01/13 05:29:20;;;;;;;4.60;3.43;;;;;;;3.14;100.00;100328.37;1778698;80;20975;-66
2022/01/13 05:31:49;;;;;;;4.08;3.00;;;;;;;3.15;100.00;100335.23;1778764;80;21558;-66
2022/01/13 05:34:18;;;;;;;4.47;2.72;;;;;;;3.17;99.99;100332.22;1776798;79;20919;-66
2022/01/13 05:36:45;;;;;;;3.67;2.80;;;;;;;3.17;99.99;100318.02;1779593;80;21022;-66
2022/01/13 05:39:12;;;;;;;3.93;3.00;;;;;;;3.20;100.00;100325.73;1775828;80;20905;-66
2022/01/13 05:41:39;;;;;;;4.62;2.83;;;;;;;3.20;100.00;100305.53;1778059;80;20938;-66
2022/01/13 05:44:05;;;;;;;5.17;2.52;;;;;;;3.19;100.00;100318.84;1777247;80;20954;-66
2022/01/13 05:46:32;;;;;;;3.53;2.60;;;;;;;3.22;100.00;100311.11;1777150;80;20966;-66
2022/01/13 05:48:59;;;;;;;2.57;2.03;;;;;;;3.24;100.00;100309.34;1777777;80;21047;-67
2022/01/13 05:51:25;;;;;;;3.92;2.30;;;;;;;3.23;100.00;100285.72;1775754;80;20962;-66
2022/01/13 05:53:52;;;;;;;3.30;2.20;;;;;;;3.24;100.00;100295.16;1777419;80;21485;-66
2022/01/13 05:56:19;;;;;;;2.80;2.50;;;;;;;3.25;100.00;100299.47;1753957;81;20914;-66
2022/01/13 05:58:45;;;;;;;3.47;2.35;;;;;;;3.24;100.00;100301.61;1755993;80;21206;-67
2022/01/13 06:01:12;;;;;;;3.37;2.27;;;;;;;3.25;100.00;100307.21;1759966;81;21481;-66
2022/01/13 06:03:39;;;;;;;3.15;2.10;;;;;;;3.24;100.00;100302.90;1762143;81;20898;-66
2022/01/13 06:06:05;;;;;;;2.60;2.10;;;;;;;3.24;100.00;100304.19;1754558;81;21010;-66
2022/01/13 06:08:34;;;;;;;4.00;1.73;;;;;;;3.24;100.00;100320.96;1759838;81;20966;-66
2022/01/13 06:11:00;;;;;;;3.83;2.00;;;;;;;3.23;100.00;100327.01;1757294;81;20918;-66
2022/01/13 06:13:27;;;;;;;2.87;2.00;;;;;;;3.25;100.00;100307.21;1762061;80;21094;-66
2022/01/13 06:15:54;;;;;;;2.08;1.82;;;;;;;3.25;100.00;100309.80;1760918;81;20930;-67
2022/01/13 06:18:24;;;;;;;2.47;1.65;;;;;;;3.26;100.00;100329.56;1759732;81;20985;-66
2022/01/13 06:20:49;;;;;;;2.85;1.70;;;;;;;3.26;100.00;100314.08;1762818;81;20957;-67
2022/01/13 06:23:15;;;;;;;2.40;1.45;;;;;;;3.28;100.00;100313.64;1761875;81;21020;-67
2022/01/13 06:25:42;;;;;;;2.45;1.40;;;;;;;3.28;100.00;100320.09;1766241;81;21049;-67
2022/01/13 06:28:08;;;;;;;1.45;1.07;;;;;;;3.30;100.00;100320.91;1763946;81;20906;-67
2022/01/13 06:30:35;;;;;;;1.98;1.30;;;;;;;3.30;100.00;100320.91;1760303;81;20925;-66
2022/01/13 06:33:35;;;;;;;1.60;1.10;;;;;;;3.29;100.00;100310.61;1766545;81;20922;-65
2022/01/13 06:36:13;;;;;;;1.00;0.88;;;;;;;3.30;100.00;100311.02;1713158;81;21419;-66
2022/01/13 06:38:40;;;;;;;1.98;0.80;;;;;;;3.32;100.00;100315.31;1715999;81;21295;-69
2022/01/13 06:41:07;;;;;;;1.07;0.75;;;;;;;3.33;100.00;100315.75;1716513;81;21519;-67
2022/01/13 06:43:33;;;;;;;0.80;0.72;;;;;;;3.34;100.00;100309.70;1720946;81;21476;-67
2022/01/13 06:46:00;;;;;;;1.12;1.02;;;;;;;3.35;100.00;100295.92;1719910;81;20967;-66
2022/01/13 06:48:27;;;;;;;1.87;1.05;;;;;;;3.36;100.00;100297.66;1717664;81;21526;-66
2022/01/13 06:50:53;;;;;;;1.63;1.00;;;;;;;3.38;100.00;100291.17;1719492;82;21082;-66
2022/01/13 10:01:13;;;;;;;7.00;3.58;;;;;;;4.52;100.00;100307.59;1743763;80;22303;-77
2022/01/13 10:03:40;;;;;;;9.30;3.90;;;;;;;4.55;100.00;100294.61;1723364;80;21041;-78
2022/01/13 10:06:13;;;;;;;7.75;3.62;;;;;;;4.57;100.00;100294.61;1734153;80;21088;-76
2022/01/13 10:08:50;;;;;;;9.20;3.40;;;;;;;4.57;100.00;100294.61;1736221;80;21567;-78
2022/01/13 10:11:37;;;;;;;8.98;4.15;;;;;;;4.58;100.00;100289.39;1739508;80;21775;-77
2022/01/13 10:16:56;;;;;;;5.72;3.60;;;;;;;4.56;100.00;100293.72;1730126;80;21761;-80
2022/01/13 10:19:32;;;;;;;7.20;3.35;;;;;;;4.53;100.00;100298.94;1723913;80;21644;-78
2022/01/13 10:22:16;;;;;;;7.22;3.45;;;;;;;4.53;100.00;100288.59;1743418;80;21604;-78
2022/01/13 10:24:53;;;;;;;5.85;3.25;;;;;;;4.52;100.00;100298.53;1744470;80;22067;-77
2022/01/13 10:27:33;;;;;;;7.70;3.67;;;;;;;4.51;100.00;100291.66;1742661;80;21636;-78
2022/01/13 10:30:16;;;;;;;8.23;3.50;;;;;;;4.48;100.00;100292.97;1733370;80;21912;-78
2022/01/13 10:35:34;;;;;;;6.15;2.45;;;;;;;4.49;100.00;100274.02;1669775;83;21030;-76
2022/01/13 10:38:02;;;;;;;5.60;3.00;;;;;;;4.51;100.00;100287.78;1672509;82;21153;-78
2022/01/13 10:40:34;;;;;;;6.28;3.00;;;;;;;4.50;100.00;100288.64;1684291;83;22285;-78
2022/01/13 10:45:39;;;;;;;4.60;2.77;;;;;;;4.53;100.00;100291.19;1678270;83;22856;-79
2022/01/13 10:48:24;;;;;;;;;;;;;;;4.56;100.00;100280.80;1679734;83;21251;-77
2022/01/13 10:51:04;;;;;;;6.33;3.15;;;;;;;4.56;100.00;100275.63;1672186;83;20201;-79
2022/01/13 10:53:38;;;;;;;6.65;2.95;;;;;;;4.57;100.00;100287.70;1623331;85;21251;-78
2022/01/13 10:56:14;;;;;;;4.95;3.17;;;;;;;4.57;100.00;100292.87;1666995;83;21034;-77
2022/01/13 10:58:51;;;;;;;7.72;3.15;;;;;;;4.58;100.00;100275.17;1673488;83;21060;-77
2022/01/13 11:01:18;;;;;;;4.90;3.00;;;;;;;4.58;100.00;100271.29;1674534;83;21391;-77
2022/01/13 11:03:47;;;;;;;4.30;2.55;;;;;;;4.54;100.00;100285.16;1676794;83;21092;-78
2022/01/13 11:06:21;;;;;;;8.68;2.92;;;;;;;4.53;100.00;100282.58;1658497;83;21196;-78
2022/01/13 11:08:47;;;;;;;8.13;3.10;;;;;;;4.52;100.00;100286.89;1695421;83;21032;-78
2022/01/13 11:11:26;;;;;;;7.30;3.08;;;;;;;4.55;100.00;100288.14;1666057;83;21048;-78
2022/01/13 11:14:14;;;;;;;7.58;3.20;;;;;;;4.58;100.00;100284.22;1671057;83;20985;-78
2022/01/13 11:16:39;;;;;;;7.10;2.95;;;;;;;4.63;100.00;100286.75;1652033;84;21241;-79
2022/01/13 11:19:07;;;;;;;9.48;3.70;;;;;;;4.67;100.00;100269.01;1662766;83;21101;-78
2022/01/13 11:21:39;;;;;;;5.62;3.00;;;;;;;4.66;100.00;100277.21;1662332;83;21097;-78
2022/01/13 11:24:08;;;;;;;5.75;3.00;;;;;;;4.69;100.00;100279.75;1653469;83;21107;-78
2022/01/13 11:26:35;;;;;;;5.92;3.00;;;;;;;4.73;100.00;100278.41;1683846;82;20997;-78
2022/01/13 11:29:04;;;;;;;7.03;3.15;;;;;;;4.71;100.00;100287.06;1675053;83;21567;-78
2022/01/13 11:31:32;;;;;;;9.20;3.90;;;;;;;4.69;100.00;100274.58;1671903;83;21419;-78
2022/01/13 11:34:00;;;;;;;8.40;3.77;;;;;;;4.67;100.00;100268.56;1679605;83;21089;-84
2022/01/13 11:36:31;;;;;;;8.55;3.80;;;;;;;4.70;100.00;100255.61;1674901;83;21217;-81
2022/01/13 11:39:06;;;;;;;8.43;3.10;;;;;;;4.69;100.00;100261.64;1680103;83;21097;-79
2022/01/13 11:41:34;;;;;;;6.22;2.98;;;;;;;4.69;100.00;100261.64;1649528;83;21105;-77
2022/01/13 11:44:17;;;;;;;;;;;;;;;4.70;100.00;100258.20;1691107;83;22095;-77
2022/01/13 11:46:49;;;;;;;9.13;3.50;;;;;;;4.73;100.00;100256.42;1683616;83;20463;-77
2022/01/13 11:49:21;;;;;;;6.25;3.05;;;;;;;4.65;100.00;100267.75;1658217;83;20980;-78
2022/01/13 11:52:02;;;;;;;7.97;3.12;;;;;;;4.69;100.00;100275.88;1671424;83;21120;-77
2022/01/13 11:54:35;;;;;;;9.25;3.95;;;;;;;4.71;100.00;100275.42;1645283;83;21596;-76
2022/01/13 11:57:16;;;;;;;9.90;3.97;;;;;;;4.69;100.00;100261.64;1675798;82;21146;-77
2022/01/13 12:00:00;;;;;;;10.08;3.70;;;;;;;4.74;100.00;100250.39;1668979;82;21049;-78
2022/01/13 12:02:35;;;;;;;9.38;4.03;;;;;;;4.71;100.00;100257.76;1682526;83;20998;-80
2022/01/13 12:05:16;;;;;;;7.92;3.15;;;;;;;4.70;100.00;100256.91;1677371;83;21123;-77
2022/01/13 12:07:53;;;;;;;6.85;3.12;;;;;;;4.70;100.00;100250.44;1670943;83;21000;-77
2022/01/13 12:10:41;;;;;;;8.40;3.15;;;;;;;4.74;100.00;100227.11;1678699;83;22277;-77
2022/01/13 12:13:33;;;;;;;11.63;3.20;;;;;;;4.76;100.00;100222.74;1669644;83;21686;-77
2022/01/13 12:16:04;;;;;;;7.87;3.15;;;;;;;4.76;100.00;100221.45;1675319;82;21020;-76
2022/01/13 12:19:03;;;;;;;10.25;3.62;;;;;;;4.83;100.00;100215.31;1653148;83;21167;-78
2022/01/13 12:21:32;;;;;;;10.18;3.55;;;;;;;4.85;100.00;100204.51;1665733;83;21091;-75
2022/01/13 12:24:00;;;;;;;13.58;3.55;;;;;;;4.85;100.00;100214.86;1658564;83;21286;-78
2022/01/13 12:26:46;;;;;;;7.80;3.12;;;;;;;4.83;100.00;100220.05;1668794;82;21006;-72
2022/01/13 12:29:27;;;;;;;10.28;3.87;;;;;;;4.84;100.00;100226.91;1682890;83;21171;-75
2022/01/13 12:32:04;;;;;;;9.85;2.85;;;;;;;4.83;100.00;100211.44;1680897;83;21729;-75
2022/01/13 12:34:39;;;;;;;9.08;3.60;;;;;;;4.82;100.00;100220.09;1650912;84;21031;-75
2022/01/13 12:37:19;;;;;;;9.93;3.98;;;;;;;4.81;100.00;100220.95;1652014;83;21042;-75
2022/01/13 12:40:00;;;;;;;12.73;4.35;;;;;;;4.80;100.00;100232.19;1681572;83;21462;-75
2022/01/13 12:42:49;;;;;;;10.20;3.42;;;;;;;4.81;100.00;100233.87;1653468;83;21143;-75
2022/01/13 12:45:29;;;;;;;8.30;3.55;;;;;;;4.78;100.00;100231.34;1636147;83;21105;-75
2022/01/13 12:48:03;;;;;;;10.23;3.52;;;;;;;4.81;100.00;100232.14;1675093;83;21121;-76
2022/01/13 12:50:47;;;;;;;8.35;3.17;;;;;;;4.80;100.00;100229.59;1642454;84;21833;-76
2022/01/13 12:53:25;;;;;;;7.80;3.60;;;;;;;4.76;100.00;100205.52;1616498;86;21104;-75
2022/01/13 12:56:12;;;;;;;9.35;3.30;;;;;;;4.76;100.00;100229.20;1624596;86;21082;-75
2022/01/13 12:58:46;;;;;;;10.70;3.70;;;;;;;4.77;100.00;100224.47;1605919;86;21259;-75
2022/01/13 13:01:17;;;;;;;11.80;3.58;;;;;;;4.77;100.00;100224.47;1659301;83;21452;-74
2022/01/13 13:04:06;;;;;;;12.85;3.55;;;;;;;4.76;100.00;100209.80;1655661;83;21609;-75
2022/01/13 13:06:36;;;;;;;7.17;3.35;;;;;;;4.74;100.00;100206.41;1619289;86;21522;-78
2022/01/13 13:09:22;;;;;;;10.82;3.22;;;;;;;4.74;100.00;100211.59;1617315;86;21623;-75
2022/01/13 13:11:58;;;;;;;12.07;4.10;;;;;;;4.73;100.00;100215.03;1629386;86;21236;-72
2022/01/13 13:17:40;;;;;;;11.83;4.25;;;;;;;4.71;100.00;100210.75;1619658;86;21386;-72
2022/01/13 13:20:12;;;;;;;10.93;3.75;;;;;;;4.67;100.00;100207.78;1629449;86;21100;-73
2022/01/13 13:22:53;;;;;;;16.12;4.20;;;;;;;4.66;100.00;100198.32;1617533;86;21109;-73
2022/01/13 13:25:40;;;;;;;11.30;4.03;;;;;;;4.66;100.00;100201.35;1628867;86;21272;-73
2022/01/13 13:28:26;;;;;;;15.20;4.80;;;;;;;4.67;100.00;100196.13;1612878;85;21760;-72
2022/01/13 13:31:07;;;;;;;10.78;4.55;;;;;;;4.68;100.00;100195.28;1629805;86;21494;-73
2022/01/13 13:33:48;;;;;;;15.03;4.00;;;;;;;4.67;100.00;100196.13;1618325;85;21112;-73
2022/01/13 13:36:32;;;;;;;14.13;4.50;;;;;;;4.70;100.00;100190.06;1626676;86;22306;-73
2022/01/13 13:39:21;;;;;;;13.68;3.92;;;;;;;4.71;100.00;100195.23;1622330;86;21013;-73
2022/01/13 13:41:51;;;;;;;10.55;3.75;;;;;;;4.73;100.00;100191.75;1624597;83;21110;-73
2022/01/13 13:44:31;;;;;;;14.87;3.83;;;;;;;4.70;100.00;100190.06;1660255;83;21732;-75
2022/01/13 13:47:11;;;;;;;12.78;3.92;;;;;;;4.70;100.00;100196.12;1671463;83;21007;-77
2022/01/13 13:49:39;;;;;;;12.30;3.65;;;;;;;4.73;100.00;100189.16;1667716;83;21272;-75
2022/01/13 13:52:14;;;;;;;16.12;4.28;;;;;;;4.75;100.00;100173.19;1664755;83;20929;-81
2022/01/13 13:54:52;;;;;;;13.75;4.03;;;;;;;4.76;100.00;100178.77;1670475;83;21070;-82
2022/01/13 13:57:17;;;;;;;13.08;3.45;;;;;;;4.77;100.00;100175.32;1642691;83;21769;-83
2022/01/13 13:59:51;;;;;;;10.55;3.50;;;;;;;4.73;100.00;100181.41;1650796;83;21167;-86
2022/01/13 14:02:37;;;;;;;17.95;4.22;;;;;;;4.76;100.00;100183.94;1657851;83;21651;-81
2022/01/13 14:05:10;;;;;;;11.40;3.17;;;;;;;4.79;100.00;100175.71;1699621;83;21068;-83
2022/01/13 14:07:44;;;;;;;18.05;4.42;;;;;;;4.81;100.00;100160.14;1675981;83;23720;-80
2022/01/13 14:10:19;;;;;;;14.43;3.87;;;;;;;4.82;100.00;100157.99;1671980;83;21096;-85
2022/01/13 14:12:55;;;;;;;17.30;5.58;;;;;;;4.82;100.00;100136.00;1670723;83;21096;-78
2022/01/13 14:15:36;;;;;;;11.53;4.03;;;;;;;4.82;100.00;100155.41;1663034;83;21178;-78
2022/01/13 14:18:18;;;;;;;12.93;3.83;;;;;;;4.83;100.00;100149.34;1638808;85;21873;-79
2022/01/13 14:21:00;;;;;;;10.85;3.45;;;;;;;4.82;100.00;100155.41;1594664;86;21089;-78
2022/01/13 14:26:05;;;;;;;12.03;3.55;;;;;;;4.85;100.00;100157.94;1843591;75;22767;-78
2022/01/13 14:28:34;;;;;;;16.70;5.10;;;;;;;4.90;100.00;100153.52;1825730;76;21752;-78
2022/01/13 14:31:08;;;;;;;12.47;3.25;;;;;;;4.95;100.00;100163.34;1757345;79;21185;-77
2022/01/13 14:33:43;;;;;;;14.65;4.20;;;;;;;4.85;100.00;100156.64;1784544;79;21026;-81
2022/01/13 14:36:23;;;;;;;10.82;3.90;;;;;;;4.83;100.00;100149.34;1792204;79;21012;-78
2022/01/13 14:38:54;;;;;;;15.53;4.50;;;;;;;4.82;100.00;100139.88;1783006;79;21096;-79
2022/01/13 14:41:36;;;;;;;13.30;4.78;;;;;;;4.85;100.00;100145.84;1793292;79;21013;-79
2022/01/13 14:44:14;;;;;;;13.80;3.52;;;;;;;4.82;100.00;100160.58;1785418;79;21083;-78
2022/01/13 14:47:03;;;;;;;17.50;4.25;;;;;;;4.81;100.00;100125.22;1763271;79;20959;-78
2022/01/13 14:49:28;;;;;;;18.02;4.85;;;;;;;4.81;100.00;100151.94;1781040;79;21055;-79
2022/01/13 14:51:56;;;;;;;14.15;4.62;;;;;;;4.83;100.00;100142.88;1789914;78;21496;-78
2022/01/13 14:54:23;;;;;;;9.20;3.17;;;;;;;4.84;100.00;100148.45;1793166;79;20946;-78
2022/01/13 14:56:49;;;;;;;10.00;3.58;;;;;;;4.86;100.00;100140.23;1772707;79;21164;-79
2022/01/13 14:59:16;;;;;;;12.47;3.53;;;;;;;4.93;100.00;100137.96;1746624;79;21524;-78
2022/01/13 15:04:08;;;;;;;15.70;3.75;;;;;;;4.98;100.00;100115.41;1840804;75;22649;-77
2022/01/13 15:06:36;;;;;;;16.42;3.80;;;;;;;4.96;100.00;100131.44;1817891;78;20997;-77
2022/01/13 15:09:05;;;;;;;12.07;3.60;;;;;;;4.97;100.00;100131.84;1825641;78;21257;-74
2022/01/13 15:11:32;;;;;;;14.95;4.33;;;;;;;4.97;100.00;100126.66;1825924;78;22210;-76
2022/01/13 15:14:00;;;;;;;;;;;;;;;4.99;100.00;100135.26;1823773;78;21076;-75
2022/01/13 15:18:54;;;;;;;15.75;3.87;;;;;;;4.99;100.00;100131.38;1834591;76;24414;-75
2022/01/13 15:21:28;;;;;;;13.95;3.80;;;;;;;4.98;100.00;100134.83;1807923;78;20997;-76
2022/01/13 15:23:52;;;;;;;13.68;3.95;;;;;;;4.98;100.00;100128.36;1813404;78;21942;-76
2022/01/13 15:26:22;;;;;;;13.65;4.35;;;;;;;5.00;100.00;100134.37;1808285;78;21060;-76
2022/01/13 15:28:49;;;;;;;12.70;4.03;;;;;;;5.04;100.00;100130.86;1820013;78;21552;-76
2022/01/13 15:31:19;;;;;;;12.18;3.35;;;;;;;5.06;100.00;100114.84;1812247;78;21027;-75
2022/01/13 15:33:47;;;;;;;13.43;3.55;;;;;;;5.09;100.00;100134.19;1783641;78;21079;-76